首页
METAR-TAF:

METAR-TAF

机场 :

Sudbury, 安大略省, 加拿大

纬度: 46-37N, 经度: 080-48W, 海拔: 348米

当前天气观测

该预报发布于1小时和12分钟前的04:00 UTC
风速13节,风向北转西北,有时为22节阵风
温度 -12°C
湿度 85%
气压 997 hPa
能見度: 24.1公里
多云层高于1500英尺
阴天层高于4500英尺
小雪

METAR: CYSB 150400Z 33013G22KT 15SM -SN BKN015 OVC045 M12/M14 A2943 RMK SC5SC3 SLP988

时间: 00:12 (05:12 UTC)

预报

该预报发布于3小时和34分钟前的01:38 UTC
预报有效从15日的 02点(UTC)到 15日的 14点(UTC)
风速10节,风向北转西北,有时为20节阵风
能見度: 3.2公里
阴天层高于400英尺
小雪, 轻雾
短暂存在
从 15日的 02点(UTC)到 15日的 08点(UTC)
能見度: 9.7公里
阴天层高于1000英尺
(小) 冻, 毛毛雨, 轻雾
从 15日的 0800点(UTC)
风速10节,风向北转西北,有时为20节阵风
能見度: 9.7公里
阴天层高于3000英尺
小雪
短暂存在
从 15日的 08点(UTC)到 15日的 14点(UTC)
能見度: 4.8公里
阴天层高于2000英尺
小雪

TAF: CYSB 150138Z 1502/1514 33010G20KT 2SM -SN BR OVC004 TEMPO 1502/1508 6SM -FZDZ BR OVC010 FM150800 34010G20KT 6SM -SN OVC030 TEMPO 1508/1514 3SM -SN OVC020 RMK NXT FCST BY 150800Z

超过4000个机场的气象观测和天气预报(METAR&TAF报告)。

可查询的气象台以黄色和红色小点在地图上表示。

将鼠标移到小点上方,可查看气象台名称。

然后点击查看天气观测和预报。

如需切换地图:点击带黑十字的绿色按钮放大地图;点击带横线的绿色按钮缩小地图;或者点击绿色箭头查看邻近地区的地图。


METAR-TAF: